sensor_id;sensor_type;location;lat;lon;timestamp;P1;durP1;ratioP1;P2;durP2;ratioP2
16426;SDS011;8322;-33.900;151.170;2023-11-18T00:00:54;4.22;;;1.30;;
16426;SDS011;8322;-33.900;151.170;2023-11-18T00:03:24;4.82;;;1.00;;
16426;SDS011;8322;-33.900;151.170;2023-11-18T00:05:56;6.60;;;1.10;;
16426;SDS011;8322;-33.900;151.170;2023-11-18T00:08:25;2.90;;;0.80;;
16426;SDS011;8322;-33.900;151.170;2023-11-18T00:10:56;4.78;;;0.90;;
16426;SDS011;8322;-33.900;151.170;2023-11-18T00:13:26;6.35;;;1.08;;
16426;SDS011;8322;-33.900;151.170;2023-11-18T00:15:55;6.45;;;0.90;;
16426;SDS011;8322;-33.900;151.170;2023-11-18T00:18:25;3.75;;;0.80;;
16426;SDS011;8322;-33.900;151.170;2023-11-18T00:20:59;4.32;;;1.05;;
16426;SDS011;8322;-33.900;151.170;2023-11-18T00:23:30;2.03;;;0.65;;
16426;SDS011;8322;-33.900;151.170;2023-11-18T00:26:00;5.22;;;1.00;;
16426;SDS011;8322;-33.900;151.170;2023-11-18T00:28:31;4.45;;;1.33;;
16426;SDS011;8322;-33.900;151.170;2023-11-18T00:31:00;5.05;;;1.40;;
16426;SDS011;8322;-33.900;151.170;2023-11-18T00:33:30;7.30;;;1.33;;
16426;SDS011;8322;-33.900;151.170;2023-11-18T00:36:02;8.30;;;1.35;;
16426;SDS011;8322;-33.900;151.170;2023-11-18T00:38:31;5.38;;;0.82;;
16426;SDS011;8322;-33.900;151.170;2023-11-18T00:41:01;4.90;;;1.30;;
16426;SDS011;8322;-33.900;151.170;2023-11-18T00:43:30;5.15;;;1.00;;
16426;SDS011;8322;-33.900;151.170;2023-11-18T00:46:00;8.25;;;1.15;;
16426;SDS011;8322;-33.900;151.170;2023-11-18T00:48:34;6.18;;;1.25;;
16426;SDS011;8322;-33.900;151.170;2023-11-18T00:51:06;3.47;;;0.95;;
16426;SDS011;8322;-33.900;151.170;2023-11-18T00:53:38;3.75;;;0.90;;
16426;SDS011;8322;-33.900;151.170;2023-11-18T00:56:08;5.15;;;1.15;;
16426;SDS011;8322;-33.900;151.170;2023-11-18T00:58:37;5.10;;;0.90;;
16426;SDS011;8322;-33.900;151.170;2023-11-18T01:01:08;7.72;;;1.70;;
16426;SDS011;8322;-33.900;151.170;2023-11-18T01:03:37;5.93;;;1.20;;
16426;SDS011;8322;-33.900;151.170;2023-11-18T01:06:09;5.57;;;1.30;;
16426;SDS011;8322;-33.900;151.170;2023-11-18T01:08:40;8.15;;;0.80;;
16426;SDS011;8322;-33.900;151.170;2023-11-18T01:11:10;5.07;;;0.80;;
16426;SDS011;8322;-33.900;151.170;2023-11-18T01:13:39;4.03;;;1.00;;
16426;SDS011;8322;-33.900;151.170;2023-11-18T01:16:09;4.00;;;1.20;;
16426;SDS011;8322;-33.900;151.170;2023-11-18T01:18:39;4.78;;;1.75;;
16426;SDS011;8322;-33.900;151.170;2023-11-18T01:21:11;6.10;;;1.25;;
16426;SDS011;8322;-33.900;151.170;2023-11-18T01:23:43;1.77;;;0.70;;
16426;SDS011;8322;-33.900;151.170;2023-11-18T01:26:13;6.82;;;1.60;;
16426;SDS011;8322;-33.900;151.170;2023-11-18T01:28:42;6.28;;;2.05;;
16426;SDS011;8322;-33.900;151.170;2023-11-18T01:31:12;5.40;;;1.20;;
16426;SDS011;8322;-33.900;151.170;2023-11-18T01:33:42;7.40;;;2.50;;
16426;SDS011;8322;-33.900;151.170;2023-11-18T01:36:14;4.93;;;1.00;;
16426;SDS011;8322;-33.900;151.170;2023-11-18T01:38:44;6.50;;;1.48;;
16426;SDS011;8322;-33.900;151.170;2023-11-18T01:41:17;8.05;;;2.58;;
16426;SDS011;8322;-33.900;151.170;2023-11-18T01:43:47;6.50;;;1.42;;
16426;SDS011;8322;-33.900;151.170;2023-11-18T01:46:16;6.05;;;1.40;;
16426;SDS011;8322;-33.900;151.170;2023-11-18T01:48:47;4.38;;;1.10;;
16426;SDS011;8322;-33.900;151.170;2023-11-18T01:51:19;4.32;;;0.90;;
16426;SDS011;8322;-33.900;151.170;2023-11-18T01:53:49;5.53;;;1.23;;
16426;SDS011;8322;-33.900;151.170;2023-11-18T01:56:19;4.95;;;1.27;;
16426;SDS011;8322;-33.900;151.170;2023-11-18T01:58:51;6.05;;;1.08;;
16426;SDS011;8322;-33.900;151.170;2023-11-18T02:01:21;5.80;;;0.88;;
16426;SDS011;8322;-33.900;151.170;2023-11-18T02:03:51;5.43;;;0.95;;
16426;SDS011;8322;-33.900;151.170;2023-11-18T02:06:22;5.68;;;1.13;;
16426;SDS011;8322;-33.900;151.170;2023-11-18T02:08:52;4.10;;;1.08;;
16426;SDS011;8322;-33.900;151.170;2023-11-18T02:11:28;7.75;;;0.95;;
16426;SDS011;8322;-33.900;151.170;2023-11-18T02:14:00;7.07;;;1.20;;
16426;SDS011;8322;-33.900;151.170;2023-11-18T02:16:30;5.60;;;1.70;;
16426;SDS011;8322;-33.900;151.170;2023-11-18T02:19:00;5.35;;;1.50;;
16426;SDS011;8322;-33.900;151.170;2023-11-18T02:21:33;4.47;;;1.02;;
16426;SDS011;8322;-33.900;151.170;2023-11-18T02:24:03;1.88;;;0.90;;
16426;SDS011;8322;-33.900;151.170;2023-11-18T02:26:35;9.15;;;1.75;;
16426;SDS011;8322;-33.900;151.170;2023-11-18T02:29:04;3.40;;;0.98;;
16426;SDS011;8322;-33.900;151.170;2023-11-18T02:31:35;3.88;;;0.80;;
16426;SDS011;8322;-33.900;151.170;2023-11-18T02:34:05;6.53;;;1.90;;
16426;SDS011;8322;-33.900;151.170;2023-11-18T02:36:39;5.80;;;0.90;;
16426;SDS011;8322;-33.900;151.170;2023-11-18T02:39:12;5.10;;;1.10;;
16426;SDS011;8322;-33.900;151.170;2023-11-18T02:41:46;4.65;;;0.85;;
16426;SDS011;8322;-33.900;151.170;2023-11-18T02:44:16;7.25;;;0.82;;
16426;SDS011;8322;-33.900;151.170;2023-11-18T02:46:47;2.17;;;0.68;;
16426;SDS011;8322;-33.900;151.170;2023-11-18T02:49:16;5.07;;;1.55;;
16426;SDS011;8322;-33.900;151.170;2023-11-18T02:51:46;4.55;;;0.95;;
16426;SDS011;8322;-33.900;151.170;2023-11-18T02:54:15;6.38;;;3.33;;
16426;SDS011;8322;-33.900;151.170;2023-11-18T02:56:47;5.88;;;1.73;;
16426;SDS011;8322;-33.900;151.170;2023-11-18T02:59:17;5.60;;;1.20;;
16426;SDS011;8322;-33.900;151.170;2023-11-18T03:01:46;4.90;;;1.65;;
16426;SDS011;8322;-33.900;151.170;2023-11-18T03:04:16;4.25;;;0.70;;
16426;SDS011;8322;-33.900;151.170;2023-11-18T03:06:46;3.72;;;0.95;;
16426;SDS011;8322;-33.900;151.170;2023-11-18T03:09:16;4.90;;;1.20;;
16426;SDS011;8322;-33.900;151.170;2023-11-18T03:11:47;6.25;;;1.30;;
16426;SDS011;8322;-33.900;151.170;2023-11-18T03:14:17;5.22;;;1.58;;
16426;SDS011;8322;-33.900;151.170;2023-11-18T03:16:47;4.90;;;0.80;;
16426;SDS011;8322;-33.900;151.170;2023-11-18T03:19:16;4.80;;;1.30;;
16426;SDS011;8322;-33.900;151.170;2023-11-18T03:21:50;4.35;;;1.00;;
16426;SDS011;8322;-33.900;151.170;2023-11-18T03:24:20;4.78;;;1.13;;
16426;SDS011;8322;-33.900;151.170;2023-11-18T03:26:51;5.72;;;1.48;;
16426;SDS011;8322;-33.900;151.170;2023-11-18T03:29:21;5.68;;;0.90;;
16426;SDS011;8322;-33.900;151.170;2023-11-18T03:31:50;2.80;;;1.17;;
16426;SDS011;8322;-33.900;151.170;2023-11-18T03:34:20;6.78;;;1.40;;
16426;SDS011;8322;-33.900;151.170;2023-11-18T03:36:49;5.82;;;1.10;;
16426;SDS011;8322;-33.900;151.170;2023-11-18T03:39:19;4.88;;;1.10;;
16426;SDS011;8322;-33.900;151.170;2023-11-18T03:41:49;5.68;;;0.80;;
16426;SDS011;8322;-33.900;151.170;2023-11-18T03:44:20;2.58;;;0.90;;
16426;SDS011;8322;-33.900;151.170;2023-11-18T03:46:50;3.33;;;0.88;;
16426;SDS011;8322;-33.900;151.170;2023-11-18T03:49:20;5.97;;;1.00;;
16426;SDS011;8322;-33.900;151.170;2023-11-18T03:51:48;3.70;;;1.02;;
16426;SDS011;8322;-33.900;151.170;2023-11-18T03:54:17;4.13;;;1.02;;
16426;SDS011;8322;-33.900;151.170;2023-11-18T03:56:47;5.13;;;1.00;;
16426;SDS011;8322;-33.900;151.170;2023-11-18T03:59:16;5.25;;;1.05;;
16426;SDS011;8322;-33.900;151.170;2023-11-18T04:01:48;4.15;;;0.90;;
16426;SDS011;8322;-33.900;151.170;2023-11-18T04:04:17;3.13;;;0.80;;
16426;SDS011;8322;-33.900;151.170;2023-11-18T04:06:47;6.70;;;1.00;;
16426;SDS011;8322;-33.900;151.170;2023-11-18T04:09:16;6.13;;;1.23;;
16426;SDS011;8322;-33.900;151.170;2023-11-18T04:11:46;4.32;;;0.85;;
16426;SDS011;8322;-33.900;151.170;2023-11-18T04:14:15;3.53;;;0.90;;
16426;SDS011;8322;-33.900;151.170;2023-11-18T04:16:45;4.82;;;1.50;;
16426;SDS011;8322;-33.900;151.170;2023-11-18T04:19:17;3.80;;;1.02;;
16426;SDS011;8322;-33.900;151.170;2023-11-18T04:21:47;5.00;;;1.02;;
16426;SDS011;8322;-33.900;151.170;2023-11-18T04:24:16;4.70;;;0.80;;
16426;SDS011;8322;-33.900;151.170;2023-11-18T04:26:46;3.65;;;1.10;;
16426;SDS011;8322;-33.900;151.170;2023-11-18T04:29:16;4.05;;;0.90;;
16426;SDS011;8322;-33.900;151.170;2023-11-18T04:31:47;6.22;;;1.00;;
16426;SDS011;8322;-33.900;151.170;2023-11-18T04:34:19;2.55;;;1.02;;
16426;SDS011;8322;-33.900;151.170;2023-11-18T04:36:49;3.33;;;0.80;;
16426;SDS011;8322;-33.900;151.170;2023-11-18T04:39:18;3.55;;;1.02;;
16426;SDS011;8322;-33.900;151.170;2023-11-18T04:41:48;5.25;;;1.40;;
16426;SDS011;8322;-33.900;151.170;2023-11-18T04:44:18;3.00;;;1.23;;
16426;SDS011;8322;-33.900;151.170;2023-11-18T04:46:48;3.08;;;0.70;;
16426;SDS011;8322;-33.900;151.170;2023-11-18T04:49:19;2.35;;;0.90;;
16426;SDS011;8322;-33.900;151.170;2023-11-18T04:51:49;5.88;;;0.93;;
16426;SDS011;8322;-33.900;151.170;2023-11-18T04:54:18;4.43;;;1.15;;
16426;SDS011;8322;-33.900;151.170;2023-11-18T04:56:48;3.72;;;1.30;;
16426;SDS011;8322;-33.900;151.170;2023-11-18T04:59:18;2.05;;;0.60;;
16426;SDS011;8322;-33.900;151.170;2023-11-18T05:01:47;2.55;;;0.82;;
16426;SDS011;8322;-33.900;151.170;2023-11-18T05:04:20;3.30;;;0.90;;
16426;SDS011;8322;-33.900;151.170;2023-11-18T05:06:50;2.28;;;0.70;;
16426;SDS011;8322;-33.900;151.170;2023-11-18T05:09:19;2.97;;;1.15;;
16426;SDS011;8322;-33.900;151.170;2023-11-18T05:11:49;4.55;;;1.35;;
16426;SDS011;8322;-33.900;151.170;2023-11-18T05:14:18;3.10;;;1.02;;
16426;SDS011;8322;-33.900;151.170;2023-11-18T05:16:48;4.25;;;1.20;;
16426;SDS011;8322;-33.900;151.170;2023-11-18T05:19:17;2.63;;;1.20;;
16426;SDS011;8322;-33.900;151.170;2023-11-18T05:21:49;2.63;;;1.00;;
16426;SDS011;8322;-33.900;151.170;2023-11-18T05:24:20;4.18;;;1.10;;
16426;SDS011;8322;-33.900;151.170;2023-11-18T05:26:49;4.03;;;1.45;;
16426;SDS011;8322;-33.900;151.170;2023-11-18T05:29:19;6.20;;;0.95;;
16426;SDS011;8322;-33.900;151.170;2023-11-18T05:31:48;4.22;;;1.75;;
16426;SDS011;8322;-33.900;151.170;2023-11-18T05:34:18;3.67;;;1.20;;
16426;SDS011;8322;-33.900;151.170;2023-11-18T05:36:49;3.42;;;1.10;;
16426;SDS011;8322;-33.900;151.170;2023-11-18T05:39:20;5.57;;;1.23;;
16426;SDS011;8322;-33.900;151.170;2023-11-18T05:41:50;6.93;;;1.20;;
16426;SDS011;8322;-33.900;151.170;2023-11-18T05:44:21;4.10;;;1.38;;
16426;SDS011;8322;-33.900;151.170;2023-11-18T05:46:56;4.28;;;1.30;;
16426;SDS011;8322;-33.900;151.170;2023-11-18T05:49:26;4.20;;;1.40;;
16426;SDS011;8322;-33.900;151.170;2023-11-18T05:51:57;5.00;;;1.33;;
16426;SDS011;8322;-33.900;151.170;2023-11-18T05:54:27;4.57;;;1.02;;
16426;SDS011;8322;-33.900;151.170;2023-11-18T05:56:57;4.43;;;0.95;;
16426;SDS011;8322;-33.900;151.170;2023-11-18T05:59:26;4.68;;;1.17;;
16426;SDS011;8322;-33.900;151.170;2023-11-18T06:01:56;4.43;;;1.08;;
16426;SDS011;8322;-33.900;151.170;2023-11-18T06:04:25;3.90;;;1.17;;
16426;SDS011;8322;-33.900;151.170;2023-11-18T06:06:55;4.82;;;1.00;;
16426;SDS011;8322;-33.900;151.170;2023-11-18T06:09:26;4.75;;;1.08;;
16426;SDS011;8322;-33.900;151.170;2023-11-18T06:11:56;2.92;;;1.00;;
16426;SDS011;8322;-33.900;151.170;2023-11-18T06:14:26;3.42;;;1.00;;
16426;SDS011;8322;-33.900;151.170;2023-11-18T06:16:56;3.13;;;1.30;;
16426;SDS011;8322;-33.900;151.170;2023-11-18T06:19:26;4.82;;;1.27;;
16426;SDS011;8322;-33.900;151.170;2023-11-18T06:21:56;4.53;;;0.98;;
16426;SDS011;8322;-33.900;151.170;2023-11-18T06:24:27;5.60;;;0.80;;
16426;SDS011;8322;-33.900;151.170;2023-11-18T06:26:57;4.47;;;1.00;;
16426;SDS011;8322;-33.900;151.170;2023-11-18T06:29:26;4.68;;;1.40;;
16426;SDS011;8322;-33.900;151.170;2023-11-18T06:31:56;5.93;;;1.45;;
16426;SDS011;8322;-33.900;151.170;2023-11-18T06:34:26;6.93;;;2.25;;
16426;SDS011;8322;-33.900;151.170;2023-11-18T06:36:55;12.63;;;4.85;;
16426;SDS011;8322;-33.900;151.170;2023-11-18T06:39:25;4.38;;;0.80;;
16426;SDS011;8322;-33.900;151.170;2023-11-18T06:41:57;5.63;;;1.60;;
16426;SDS011;8322;-33.900;151.170;2023-11-18T06:44:28;4.03;;;1.38;;
16426;SDS011;8322;-33.900;151.170;2023-11-18T06:46:59;5.93;;;1.60;;
16426;SDS011;8322;-33.900;151.170;2023-11-18T06:49:31;8.77;;;3.38;;
16426;SDS011;8322;-33.900;151.170;2023-11-18T06:52:03;8.90;;;3.92;;
16426;SDS011;8322;-33.900;151.170;2023-11-18T06:54:32;3.40;;;1.70;;
16426;SDS011;8322;-33.900;151.170;2023-11-18T06:57:03;5.15;;;1.73;;
16426;SDS011;8322;-33.900;151.170;2023-11-18T06:59:34;8.48;;;4.53;;
16426;SDS011;8322;-33.900;151.170;2023-11-18T07:02:03;13.93;;;6.95;;
16426;SDS011;8322;-33.900;151.170;2023-11-18T07:04:34;12.02;;;6.30;;
16426;SDS011;8322;-33.900;151.170;2023-11-18T07:07:04;4.22;;;1.67;;
16426;SDS011;8322;-33.900;151.170;2023-11-18T07:09:34;4.97;;;1.45;;
16426;SDS011;8322;-33.900;151.170;2023-11-18T07:12:07;6.97;;;2.00;;
16426;SDS011;8322;-33.900;151.170;2023-11-18T07:14:36;9.98;;;5.05;;
16426;SDS011;8322;-33.900;151.170;2023-11-18T07:17:06;7.68;;;2.20;;
16426;SDS011;8322;-33.900;151.170;2023-11-18T07:19:35;12.68;;;6.18;;
16426;SDS011;8322;-33.900;151.170;2023-11-18T07:22:06;8.73;;;1.73;;
16426;SDS011;8322;-33.900;151.170;2023-11-18T07:24:36;4.03;;;1.45;;
16426;SDS011;8322;-33.900;151.170;2023-11-18T07:27:07;7.32;;;3.63;;
16426;SDS011;8322;-33.900;151.170;2023-11-18T07:29:37;15.10;;;5.55;;
16426;SDS011;8322;-33.900;151.170;2023-11-18T07:32:07;13.13;;;7.20;;
16426;SDS011;8322;-33.900;151.170;2023-11-18T07:34:36;7.72;;;2.97;;
16426;SDS011;8322;-33.900;151.170;2023-11-18T07:37:07;8.13;;;2.10;;
16426;SDS011;8322;-33.900;151.170;2023-11-18T07:39:37;6.90;;;2.75;;
16426;SDS011;8322;-33.900;151.170;2023-11-18T07:42:16;26.15;;;11.15;;
16426;SDS011;8322;-33.900;151.170;2023-11-18T07:44:45;19.63;;;9.00;;
16426;SDS011;8322;-33.900;151.170;2023-11-18T07:47:15;13.25;;;5.28;;
16426;SDS011;8322;-33.900;151.170;2023-11-18T07:49:47;10.07;;;3.40;;
16426;SDS011;8322;-33.900;151.170;2023-11-18T07:52:16;12.50;;;5.00;;
16426;SDS011;8322;-33.900;151.170;2023-11-18T07:54:46;6.22;;;2.13;;
16426;SDS011;8322;-33.900;151.170;2023-11-18T07:57:17;8.60;;;3.65;;
16426;SDS011;8322;-33.900;151.170;2023-11-18T07:59:47;8.60;;;3.45;;
16426;SDS011;8322;-33.900;151.170;2023-11-18T08:02:16;7.55;;;2.90;;
16426;SDS011;8322;-33.900;151.170;2023-11-18T08:04:46;8.10;;;2.00;;
16426;SDS011;8322;-33.900;151.170;2023-11-18T08:07:16;5.78;;;2.80;;
16426;SDS011;8322;-33.900;151.170;2023-11-18T08:09:45;7.88;;;2.95;;
16426;SDS011;8322;-33.900;151.170;2023-11-18T08:12:15;7.25;;;2.63;;
16426;SDS011;8322;-33.900;151.170;2023-11-18T08:14:44;8.80;;;3.47;;
16426;SDS011;8322;-33.900;151.170;2023-11-18T08:17:15;14.93;;;5.43;;
16426;SDS011;8322;-33.900;151.170;2023-11-18T08:19:45;22.30;;;10.55;;
16426;SDS011;8322;-33.900;151.170;2023-11-18T08:22:16;16.27;;;8.13;;
16426;SDS011;8322;-33.900;151.170;2023-11-18T08:24:45;8.95;;;4.25;;
16426;SDS011;8322;-33.900;151.170;2023-11-18T08:27:15;9.52;;;4.57;;
16426;SDS011;8322;-33.900;151.170;2023-11-18T08:29:47;8.50;;;3.30;;
16426;SDS011;8322;-33.900;151.170;2023-11-18T08:32:16;11.10;;;4.43;;
16426;SDS011;8322;-33.900;151.170;2023-11-18T08:34:46;12.57;;;5.43;;
16426;SDS011;8322;-33.900;151.170;2023-11-18T08:37:17;13.73;;;5.50;;
16426;SDS011;8322;-33.900;151.170;2023-11-18T08:39:47;12.50;;;7.18;;
16426;SDS011;8322;-33.900;151.170;2023-11-18T08:42:17;12.88;;;5.07;;
16426;SDS011;8322;-33.900;151.170;2023-11-18T08:44:48;7.15;;;3.30;;
16426;SDS011;8322;-33.900;151.170;2023-11-18T08:47:18;8.95;;;3.53;;
16426;SDS011;8322;-33.900;151.170;2023-11-18T08:49:47;7.45;;;3.67;;
16426;SDS011;8322;-33.900;151.170;2023-11-18T08:52:17;26.40;;;10.43;;
16426;SDS011;8322;-33.900;151.170;2023-11-18T08:54:46;13.50;;;5.55;;
16426;SDS011;8322;-33.900;151.170;2023-11-18T08:57:28;25.92;;;13.50;;
16426;SDS011;8322;-33.900;151.170;2023-11-18T09:00:16;17.67;;;8.95;;
16426;SDS011;8322;-33.900;151.170;2023-11-18T09:02:58;11.70;;;5.13;;
16426;SDS011;8322;-33.900;151.170;2023-11-18T09:05:31;6.43;;;2.72;;
16426;SDS011;8322;-33.900;151.170;2023-11-18T09:08:01;9.23;;;3.60;;
16426;SDS011;8322;-33.900;151.170;2023-11-18T09:10:32;12.05;;;5.00;;
16426;SDS011;8322;-33.900;151.170;2023-11-18T09:13:01;11.48;;;4.13;;
16426;SDS011;8322;-33.900;151.170;2023-11-18T09:15:33;8.60;;;2.50;;
16426;SDS011;8322;-33.900;151.170;2023-11-18T09:18:03;7.80;;;2.80;;
16426;SDS011;8322;-33.900;151.170;2023-11-18T09:20:36;7.68;;;2.97;;
16426;SDS011;8322;-33.900;151.170;2023-11-18T09:23:05;5.72;;;2.55;;
16426;SDS011;8322;-33.900;151.170;2023-11-18T09:25:35;7.43;;;2.80;;
16426;SDS011;8322;-33.900;151.170;2023-11-18T09:28:06;11.48;;;5.82;;
16426;SDS011;8322;-33.900;151.170;2023-11-18T09:30:41;15.35;;;6.22;;
16426;SDS011;8322;-33.900;151.170;2023-11-18T09:33:16;7.47;;;2.85;;
16426;SDS011;8322;-33.900;151.170;2023-11-18T09:35:52;6.32;;;1.92;;
16426;SDS011;8322;-33.900;151.170;2023-11-18T09:38:25;7.28;;;2.72;;
16426;SDS011;8322;-33.900;151.170;2023-11-18T09:40:56;13.35;;;5.80;;
16426;SDS011;8322;-33.900;151.170;2023-11-18T09:43:31;18.10;;;7.97;;
16426;SDS011;8322;-33.900;151.170;2023-11-18T09:46:10;14.48;;;7.20;;
16426;SDS011;8322;-33.900;151.170;2023-11-18T09:48:42;19.77;;;7.60;;
16426;SDS011;8322;-33.900;151.170;2023-11-18T09:51:15;10.70;;;4.75;;
16426;SDS011;8322;-33.900;151.170;2023-11-18T09:53:47;6.57;;;3.38;;
16426;SDS011;8322;-33.900;151.170;2023-11-18T09:56:19;5.57;;;2.15;;
16426;SDS011;8322;-33.900;151.170;2023-11-18T09:58:59;12.63;;;5.30;;
16426;SDS011;8322;-33.900;151.170;2023-11-18T10:01:34;19.83;;;8.80;;
16426;SDS011;8322;-33.900;151.170;2023-11-18T10:04:06;9.65;;;4.40;;
16426;SDS011;8322;-33.900;151.170;2023-11-18T10:06:37;4.30;;;1.83;;
16426;SDS011;8322;-33.900;151.170;2023-11-18T10:09:06;8.15;;;2.60;;
16426;SDS011;8322;-33.900;151.170;2023-11-18T10:11:54;7.35;;;2.50;;
16426;SDS011;8322;-33.900;151.170;2023-11-18T10:14:31;8.05;;;3.53;;
16426;SDS011;8322;-33.900;151.170;2023-11-18T10:17:05;5.63;;;2.90;;
16426;SDS011;8322;-33.900;151.170;2023-11-18T10:19:50;12.57;;;5.40;;
16426;SDS011;8322;-33.900;151.170;2023-11-18T10:22:22;5.97;;;2.60;;
16426;SDS011;8322;-33.900;151.170;2023-11-18T10:24:53;4.63;;;1.42;;
16426;SDS011;8322;-33.900;151.170;2023-11-18T10:27:23;4.97;;;1.48;;
16426;SDS011;8322;-33.900;151.170;2023-11-18T10:29:56;4.80;;;1.40;;
16426;SDS011;8322;-33.900;151.170;2023-11-18T10:32:30;5.68;;;1.27;;
16426;SDS011;8322;-33.900;151.170;2023-11-18T10:35:01;10.80;;;3.35;;
16426;SDS011;8322;-33.900;151.170;2023-11-18T10:37:33;5.65;;;1.75;;
16426;SDS011;8322;-33.900;151.170;2023-11-18T10:40:09;7.30;;;1.75;;
16426;SDS011;8322;-33.900;151.170;2023-11-18T10:42:41;3.95;;;1.02;;
16426;SDS011;8322;-33.900;151.170;2023-11-18T10:45:15;7.10;;;1.40;;
16426;SDS011;8322;-33.900;151.170;2023-11-18T10:47:55;6.43;;;2.00;;
16426;SDS011;8322;-33.900;151.170;2023-11-18T10:50:25;8.10;;;1.85;;
16426;SDS011;8322;-33.900;151.170;2023-11-18T10:52:58;5.70;;;1.40;;
16426;SDS011;8322;-33.900;151.170;2023-11-18T10:55:35;6.78;;;1.85;;
16426;SDS011;8322;-33.900;151.170;2023-11-18T10:58:06;10.23;;;3.55;;
16426;SDS011;8322;-33.900;151.170;2023-11-18T11:00:48;8.05;;;3.35;;
16426;SDS011;8322;-33.900;151.170;2023-11-18T11:03:21;5.85;;;1.70;;
16426;SDS011;8322;-33.900;151.170;2023-11-18T11:05:51;7.03;;;1.77;;
16426;SDS011;8322;-33.900;151.170;2023-11-18T11:08:22;7.28;;;2.97;;
16426;SDS011;8322;-33.900;151.170;2023-11-18T11:10:52;5.07;;;1.60;;
16426;SDS011;8322;-33.900;151.170;2023-11-18T11:13:22;4.55;;;1.30;;
16426;SDS011;8322;-33.900;151.170;2023-11-18T11:15:53;6.68;;;1.55;;
16426;SDS011;8322;-33.900;151.170;2023-11-18T11:18:25;5.65;;;1.27;;
16426;SDS011;8322;-33.900;151.170;2023-11-18T11:21:01;3.03;;;1.17;;
16426;SDS011;8322;-33.900;151.170;2023-11-18T11:23:35;5.72;;;1.85;;
16426;SDS011;8322;-33.900;151.170;2023-11-18T11:26:13;5.72;;;1.10;;
16426;SDS011;8322;-33.900;151.170;2023-11-18T11:28:45;4.28;;;0.90;;
16426;SDS011;8322;-33.900;151.170;2023-11-18T11:31:20;6.20;;;1.50;;
16426;SDS011;8322;-33.900;151.170;2023-11-18T11:33:55;4.20;;;1.30;;
16426;SDS011;8322;-33.900;151.170;2023-11-18T11:36:29;4.78;;;1.17;;
16426;SDS011;8322;-33.900;151.170;2023-11-18T11:38:59;4.25;;;1.20;;
16426;SDS011;8322;-33.900;151.170;2023-11-18T11:41:30;7.43;;;1.10;;
16426;SDS011;8322;-33.900;151.170;2023-11-18T11:44:00;6.13;;;1.25;;
16426;SDS011;8322;-33.900;151.170;2023-11-18T11:46:32;5.53;;;1.15;;
16426;SDS011;8322;-33.900;151.170;2023-11-18T11:49:05;6.38;;;1.00;;
16426;SDS011;8322;-33.900;151.170;2023-11-18T11:51:44;8.07;;;2.28;;
16426;SDS011;8322;-33.900;151.170;2023-11-18T11:54:20;7.03;;;1.80;;
16426;SDS011;8322;-33.900;151.170;2023-11-18T11:56:50;4.18;;;1.23;;
16426;SDS011;8322;-33.900;151.170;2023-11-18T12:02:10;5.15;;;1.27;;
16426;SDS011;8322;-33.900;151.170;2023-11-18T12:04:45;4.95;;;1.02;;
16426;SDS011;8322;-33.900;151.170;2023-11-18T12:07:19;6.47;;;1.30;;
16426;SDS011;8322;-33.900;151.170;2023-11-18T12:09:49;5.43;;;1.10;;
16426;SDS011;8322;-33.900;151.170;2023-11-18T12:12:23;2.85;;;1.17;;
16426;SDS011;8322;-33.900;151.170;2023-11-18T12:14:54;5.20;;;1.15;;
16426;SDS011;8322;-33.900;151.170;2023-11-18T12:17:26;4.35;;;1.33;;
16426;SDS011;8322;-33.900;151.170;2023-11-18T12:19:59;6.10;;;1.38;;
16426;SDS011;8322;-33.900;151.170;2023-11-18T12:28:14;5.72;;;1.70;;
16426;SDS011;8322;-33.900;151.170;2023-11-18T12:30:49;8.35;;;1.92;;
16426;SDS011;8322;-33.900;151.170;2023-11-18T12:34:00;4.85;;;1.55;;
16426;SDS011;8322;-33.900;151.170;2023-11-18T12:36:54;7.68;;;1.65;;
16426;SDS011;8322;-33.900;151.170;2023-11-18T12:42:33;6.47;;;1.23;;
16426;SDS011;8322;-33.900;151.170;2023-11-18T12:45:19;4.25;;;1.02;;
16426;SDS011;8322;-33.900;151.170;2023-11-18T12:47:53;6.18;;;1.02;;
16426;SDS011;8322;-33.900;151.170;2023-11-18T12:50:28;4.57;;;1.02;;
16426;SDS011;8322;-33.900;151.170;2023-11-18T12:53:02;7.70;;;1.42;;
16426;SDS011;8322;-33.900;151.170;2023-11-18T12:55:32;5.05;;;1.20;;
16426;SDS011;8322;-33.900;151.170;2023-11-18T12:58:02;6.55;;;1.20;;
16426;SDS011;8322;-33.900;151.170;2023-11-18T13:00:32;5.82;;;1.50;;
16426;SDS011;8322;-33.900;151.170;2023-11-18T13:03:02;5.03;;;1.60;;
16426;SDS011;8322;-33.900;151.170;2023-11-18T13:05:36;4.90;;;1.25;;
16426;SDS011;8322;-33.900;151.170;2023-11-18T13:08:07;3.28;;;0.82;;
16426;SDS011;8322;-33.900;151.170;2023-11-18T13:10:37;5.15;;;1.70;;
16426;SDS011;8322;-33.900;151.170;2023-11-18T13:13:07;4.93;;;1.45;;
16426;SDS011;8322;-33.900;151.170;2023-11-18T13:15:38;6.28;;;1.90;;
16426;SDS011;8322;-33.900;151.170;2023-11-18T13:18:07;8.55;;;1.77;;
16426;SDS011;8322;-33.900;151.170;2023-11-18T13:20:38;5.43;;;1.33;;
16426;SDS011;8322;-33.900;151.170;2023-11-18T13:23:10;9.52;;;1.60;;
16426;SDS011;8322;-33.900;151.170;2023-11-18T13:25:41;3.30;;;1.50;;
16426;SDS011;8322;-33.900;151.170;2023-11-18T13:28:10;6.93;;;1.70;;
16426;SDS011;8322;-33.900;151.170;2023-11-18T13:30:41;7.60;;;1.73;;
16426;SDS011;8322;-33.900;151.170;2023-11-18T13:33:11;7.03;;;1.55;;
16426;SDS011;8322;-33.900;151.170;2023-11-18T13:35:42;6.38;;;1.70;;
16426;SDS011;8322;-33.900;151.170;2023-11-18T13:38:14;3.38;;;1.17;;
16426;SDS011;8322;-33.900;151.170;2023-11-18T13:40:44;4.18;;;1.33;;
16426;SDS011;8322;-33.900;151.170;2023-11-18T13:43:14;8.02;;;1.38;;
16426;SDS011;8322;-33.900;151.170;2023-11-18T13:45:49;3.47;;;1.08;;
16426;SDS011;8322;-33.900;151.170;2023-11-18T13:48:21;4.07;;;1.40;;
16426;SDS011;8322;-33.900;151.170;2023-11-18T13:50:52;4.32;;;1.10;;
16426;SDS011;8322;-33.900;151.170;2023-11-18T13:53:24;6.93;;;1.30;;
16426;SDS011;8322;-33.900;151.170;2023-11-18T13:55:53;6.90;;;1.48;;
16426;SDS011;8322;-33.900;151.170;2023-11-18T13:58:23;4.03;;;1.20;;
16426;SDS011;8322;-33.900;151.170;2023-11-18T14:00:54;4.68;;;1.42;;
16426;SDS011;8322;-33.900;151.170;2023-11-18T14:03:24;4.10;;;1.20;;
16426;SDS011;8322;-33.900;151.170;2023-11-18T14:05:57;4.18;;;1.20;;
16426;SDS011;8322;-33.900;151.170;2023-11-18T14:08:30;3.28;;;1.20;;
16426;SDS011;8322;-33.900;151.170;2023-11-18T14:11:00;4.85;;;1.30;;
16426;SDS011;8322;-33.900;151.170;2023-11-18T14:13:31;1.92;;;1.10;;
16426;SDS011;8322;-33.900;151.170;2023-11-18T14:16:01;6.03;;;0.90;;
16426;SDS011;8322;-33.900;151.170;2023-11-18T14:18:30;5.70;;;1.30;;
16426;SDS011;8322;-33.900;151.170;2023-11-18T14:21:00;7.28;;;1.30;;
16426;SDS011;8322;-33.900;151.170;2023-11-18T14:23:32;5.22;;;1.23;;
16426;SDS011;8322;-33.900;151.170;2023-11-18T14:26:03;4.00;;;1.35;;
16426;SDS011;8322;-33.900;151.170;2023-11-18T14:28:33;4.97;;;1.10;;
16426;SDS011;8322;-33.900;151.170;2023-11-18T14:31:03;3.97;;;1.00;;
16426;SDS011;8322;-33.900;151.170;2023-11-18T14:33:33;3.88;;;1.30;;
16426;SDS011;8322;-33.900;151.170;2023-11-18T14:36:03;5.05;;;1.17;;
16426;SDS011;8322;-33.900;151.170;2023-11-18T14:38:34;5.03;;;1.05;;
16426;SDS011;8322;-33.900;151.170;2023-11-18T14:41:04;3.15;;;1.02;;
16426;SDS011;8322;-33.900;151.170;2023-11-18T14:43:34;7.20;;;1.30;;
16426;SDS011;8322;-33.900;151.170;2023-11-18T14:46:04;7.10;;;1.20;;
16426;SDS011;8322;-33.900;151.170;2023-11-18T14:48:34;3.92;;;1.20;;
16426;SDS011;8322;-33.900;151.170;2023-11-18T14:51:04;4.20;;;1.08;;
16426;SDS011;8322;-33.900;151.170;2023-11-18T14:53:36;3.95;;;1.30;;
16426;SDS011;8322;-33.900;151.170;2023-11-18T14:56:05;5.45;;;1.38;;